Current Weather

Andersen Afb

Yigo, Guam (PGUA)

Report from: Saturday, June 22, 2024 8:55 AM ChST
Current time: Saturday, June 22, 2024 10:07 AM ChST

Nearby weather – Weather history – Daily summaries
Weather forecast

Temperature29.0°C (84.2°F)
Heat index34.6°C (94.3°F)
Dew point25.0°C (77.0°F)
Winds 13 kts (6.7 m/s, 15 mph) East-Southeast (110°)
Visibility8 mi. (12.9 km)
Clouds Ceiling: Broken clouds 1,300 ft. (396 m)
Altimeter29.94 in.Hg (1014 mB)
Relative humidity79 %
Density altitude2,009 ft. (612 m)
Remarks Fully automated report
Flight conditions Marginal Visual Meteorological Conditions
Raw dataPGUA 212255Z AUTO 11013KT 8SM BKN013 29/25 A2994
An error has occurred. This application may no longer respond until reloaded. Reload 🗙